Time;durP1;ratioP1;P1;durP2;ratioP2;P2;SDS_P1;SDS_P2;PMS_P1;PMS_P2;Temp;Humidity;BMP_temperature;BMP_pressure;BME280_temperature;BME280_humidity;BME280_pressure;Samples;Min_cycle;Max_cycle;Signal;HPM_P1;HPM_P2
2024/04/02 00:00:41;;;;;;;21.42;9.35;;;;;;;-145.63;40.02;39082.91;5060575;28;20120;-65
2024/04/02 00:03:09;;;;;;;21.55;9.32;;;;;;;-145.63;40.26;39122.03;5051311;28;20036;-65
2024/04/02 00:05:36;;;;;;;21.77;9.32;;;;;;;-145.63;40.17;39137.69;5050551;28;20108;-66
2024/04/02 00:08:02;;;;;;;23.38;8.48;;;;;;;-145.63;40.84;39122.03;5051172;28;20036;-66
2024/04/02 00:10:28;;;;;;;35.13;18.30;;;;;;;-145.63;40.36;39153.31;5067750;28;20078;-69
2024/04/02 00:12:54;;;;;;;17.08;8.27;;;;;;;-145.63;40.70;39131.81;5070422;28;20032;-65
2024/04/02 00:15:20;;;;;;;17.42;8.30;;;;;;;-145.63;40.62;39122.03;5063204;28;20412;-66
2024/04/02 00:17:45;;;;;;;24.08;9.75;;;;;;;-145.63;40.91;39122.03;5034978;28;20041;-66
2024/04/02 00:20:11;;;;;;;21.27;8.82;;;;;;;-145.63;41.36;39127.91;5070719;28;20036;-66
2024/04/02 00:22:38;;;;;;;19.52;8.90;;;;;;;-145.63;40.80;39127.91;5052664;28;20037;-66
2024/04/02 00:25:04;;;;;;;22.15;8.80;;;;;;;-145.63;41.29;39182.66;5064217;28;20047;-65
2024/04/02 00:27:30;;;;;;;21.60;8.63;;;;;;;-145.63;41.19;39122.03;5069890;28;20030;-66
2024/04/02 00:29:55;;;;;;;18.27;8.55;;;;;;;-145.63;41.63;39151.38;5066260;28;20099;-65
2024/04/02 00:32:22;;;;;;;20.13;8.57;;;;;;;-145.63;41.39;39110.28;5051013;28;20033;-66
2024/04/02 00:34:48;;;;;;;20.48;8.52;;;;;;;-145.63;41.07;39145.50;5050035;28;20120;-67
2024/04/02 00:37:14;;;;;;;21.30;9.00;;;;;;;-145.63;41.59;39157.22;5066779;28;20116;-65
2024/04/02 00:39:39;;;;;;;25.70;9.13;;;;;;;-145.63;41.08;39131.81;5064392;28;20124;-66
2024/04/02 00:42:05;;;;;;;18.42;9.45;;;;;;;-145.63;41.69;39167.00;5069444;28;20113;-65
2024/04/02 00:44:33;;;;;;;26.80;8.90;;;;;;;-145.63;41.65;39125.94;5074053;28;20048;-64
2024/04/02 00:46:59;;;;;;;19.42;8.48;;;;;;;-145.63;41.83;39122.03;5073958;28;20043;-67
2024/04/02 00:49:25;;;;;;;20.20;8.32;;;;;;;-145.63;41.37;39153.31;5057497;28;20062;-65
2024/04/02 00:51:51;;;;;;;19.90;9.70;;;;;;;-145.63;41.38;39157.22;5075843;28;20056;-65
2024/04/02 00:54:17;;;;;;;22.95;8.65;;;;;;;-145.63;41.65;39122.03;5067574;28;20120;-65
2024/04/02 00:56:44;;;;;;;24.95;8.57;;;;;;;-145.63;41.99;39157.22;5065663;28;20035;-64
2024/04/02 00:59:10;;;;;;;22.10;9.15;;;;;;;-145.63;42.10;39145.50;5074265;28;20040;-67
2024/04/02 01:01:36;;;;;;;24.73;8.90;;;;;;;-145.63;42.05;39135.72;5056457;28;20048;-65
2024/04/02 01:04:02;;;;;;;24.92;9.30;;;;;;;-145.63;42.18;39153.31;5067842;28;20036;-65
2024/04/02 01:06:28;;;;;;;20.48;9.70;;;;;;;-145.63;42.27;39192.44;5066121;28;20056;-66
2024/04/02 01:08:54;;;;;;;19.50;8.98;;;;;;;-145.63;42.56;39153.31;5056453;28;20048;-66
2024/04/02 01:11:20;;;;;;;21.98;8.80;;;;;;;-145.63;42.25;39151.38;5073196;28;20116;-65
2024/04/02 01:13:47;;;;;;;17.50;8.35;;;;;;;-145.63;42.61;39161.13;5073999;28;20056;-66
2024/04/02 01:16:16;;;;;;;19.48;9.20;;;;;;;-145.63;42.58;39188.53;5059398;28;20535;-65
2024/04/02 01:18:45;;;;;;;20.90;9.18;;;;;;;-145.63;42.73;39120.06;5053257;28;20040;-65
2024/04/02 01:21:12;;;;;;;19.48;8.50;;;;;;;-145.63;42.71;39186.56;5054269;28;20438;-65
2024/04/02 01:23:37;;;;;;;20.23;8.50;;;;;;;-145.63;42.64;39174.84;5054424;28;20022;-66
2024/04/02 01:26:03;;;;;;;23.38;9.13;;;;;;;-145.63;43.41;39161.13;5059068;28;20089;-66
2024/04/02 01:28:29;;;;;;;21.73;9.55;;;;;;;-145.63;43.08;39221.78;5073645;28;20029;-64
2024/04/02 01:30:54;;;;;;;23.92;8.82;;;;;;;-145.63;42.67;39186.56;5061878;28;20053;-65
2024/04/02 01:33:20;;;;;;;19.80;8.68;;;;;;;-145.63;43.77;39161.13;5059489;28;20409;-67
2024/04/02 01:35:45;;;;;;;18.80;8.70;;;;;;;-145.63;43.19;39192.44;5071424;28;20040;-65
2024/04/02 01:38:11;;;;;;;24.20;9.35;;;;;;;-145.63;43.21;39174.84;5053402;28;20044;-66
2024/04/02 01:40:36;;;;;;;15.85;8.32;;;;;;;-145.63;43.82;39178.75;5070697;28;20094;-65
2024/04/02 01:43:02;;;;;;;23.30;9.75;;;;;;;-145.63;43.24;39163.09;5073446;28;20393;-66
2024/04/02 01:45:28;;;;;;;21.80;8.93;;;;;;;-145.63;43.88;39184.59;5072480;28;20120;-66
2024/04/02 01:47:53;;;;;;;24.98;8.85;;;;;;;-145.63;44.16;39202.22;5072411;28;20111;-66
2024/04/02 01:50:19;;;;;;;24.58;8.77;;;;;;;-145.63;44.16;39196.34;5077199;28;20379;-65
2024/04/02 01:52:44;;;;;;;20.20;9.00;;;;;;;-145.63;43.87;39223.72;5074212;28;20396;-67
2024/04/02 01:55:13;;;;;;;25.23;8.68;;;;;;;-145.63;44.51;39198.31;5059206;28;20102;-65
2024/04/02 01:57:38;;;;;;;18.30;9.40;;;;;;;-145.63;44.52;39186.56;5061817;28;20047;-65
2024/04/02 02:00:05;;;;;;;18.42;8.50;;;;;;;-145.63;44.49;39188.53;5068108;28;20477;-66
2024/04/02 02:02:31;;;;;;;22.30;8.77;;;;;;;-145.63;44.20;39204.16;5054316;28;20036;-66
2024/04/02 02:04:57;;;;;;;16.35;8.40;;;;;;;-145.63;44.44;39194.38;5072692;28;20039;-65
2024/04/02 02:07:22;;;;;;;21.77;9.65;;;;;;;-145.63;44.27;39204.16;5068877;28;20039;-66
2024/04/02 02:09:48;;;;;;;24.40;9.20;;;;;;;-145.63;44.85;39213.94;5072752;28;20032;-66
2024/04/02 02:12:14;;;;;;;25.15;10.10;;;;;;;-145.63;44.45;39213.94;5072879;28;20037;-67
2024/04/02 02:14:39;;;;;;;26.23;10.75;;;;;;;-145.63;44.40;39213.94;5071570;28;20029;-66
2024/04/02 02:17:05;;;;;;;28.98;10.02;;;;;;;-145.63;44.44;39196.34;5053098;28;20025;-68
2024/04/02 02:19:30;;;;;;;23.75;9.55;;;;;;;-145.63;45.53;39184.59;5072535;28;20044;-66
2024/04/02 02:21:56;;;;;;;19.17;9.63;;;;;;;-145.63;45.34;39221.78;5061075;28;20033;-66
2024/04/02 02:24:21;;;;;;;25.13;10.20;;;;;;;-145.63;45.25;39204.16;5058232;28;20468;-67
2024/04/02 02:26:47;;;;;;;28.45;11.00;;;;;;;-145.63;44.79;39210.03;5071978;28;20056;-65
2024/04/02 02:29:12;;;;;;;25.77;9.93;;;;;;;-145.63;46.00;39212.00;5071744;28;20031;-65
2024/04/02 02:31:39;;;;;;;19.83;9.15;;;;;;;-145.63;45.78;39190.47;5055288;28;20045;-68
2024/04/02 02:34:05;;;;;;;25.60;9.68;;;;;;;-145.63;46.23;39225.69;5064311;28;20052;-66
2024/04/02 02:36:31;;;;;;;21.63;8.68;;;;;;;-145.63;45.55;39196.34;5064634;28;20064;-65
2024/04/02 02:38:56;;;;;;;22.00;9.23;;;;;;;-145.63;45.87;39253.06;5053133;28;20505;-66
2024/04/02 02:41:22;;;;;;;19.63;9.70;;;;;;;-145.63;46.21;39217.84;5072094;28;20088;-66
2024/04/02 02:43:48;;;;;;;20.80;9.63;;;;;;;-145.63;45.26;39204.16;5054022;28;20025;-66
2024/04/02 02:46:13;;;;;;;20.25;9.40;;;;;;;-145.63;45.96;39219.81;5065129;28;20451;-65
2024/04/02 02:48:39;;;;;;;19.85;9.98;;;;;;;-145.63;45.70;39219.81;5071570;28;20036;-67
2024/04/02 02:51:05;;;;;;;24.45;10.50;;;;;;;-145.63;45.54;39247.19;5078378;28;20064;-67
2024/04/02 02:53:30;;;;;;;23.85;9.77;;;;;;;-145.63;46.56;39192.44;5072092;28;20067;-66
2024/04/02 02:55:56;;;;;;;21.77;9.88;;;;;;;-145.63;46.21;39213.94;5053839;28;20480;-65
2024/04/02 02:58:22;;;;;;;24.67;9.50;;;;;;;-145.63;46.48;39227.63;5039670;28;20067;-66
2024/04/02 03:00:48;;;;;;;19.73;9.90;;;;;;;-145.63;46.49;39223.72;5060977;28;20039;-66
2024/04/02 03:03:14;;;;;;;23.20;9.88;;;;;;;-145.63;46.99;39253.06;5082172;28;20028;-66
2024/04/02 03:05:40;;;;;;;24.20;9.35;;;;;;;-145.63;46.68;39231.53;5071262;28;20024;-66
2024/04/02 03:08:06;;;;;;;24.88;10.18;;;;;;;-145.63;47.42;39219.81;5051851;28;20032;-67
2024/04/02 03:10:31;;;;;;;20.10;9.70;;;;;;;-145.63;46.20;39255.00;5066845;28;20068;-64
2024/04/02 03:12:57;;;;;;;23.67;9.95;;;;;;;-145.63;46.71;39227.63;5060841;28;20101;-66
2024/04/02 03:15:23;;;;;;;20.45;9.77;;;;;;;-145.63;47.17;39239.38;5057659;28;20032;-66
2024/04/02 03:17:49;;;;;;;20.75;9.95;;;;;;;-145.63;47.07;39245.25;5070899;28;20078;-67
2024/04/02 03:20:14;;;;;;;21.25;8.95;;;;;;;-145.63;46.90;39243.28;5071915;28;20457;-65
2024/04/02 03:22:40;;;;;;;22.30;10.18;;;;;;;-145.63;47.05;39235.47;5054537;28;20167;-66
2024/04/02 03:25:06;;;;;;;26.25;9.75;;;;;;;-145.63;47.25;39055.53;5062998;28;20126;-67
2024/04/02 03:27:31;;;;;;;21.52;9.63;;;;;;;-145.63;46.57;39223.72;5063886;28;20037;-66
2024/04/02 03:29:57;;;;;;;23.77;10.73;;;;;;;-145.63;46.79;39215.91;5053348;28;20521;-66
2024/04/02 03:32:22;;;;;;;26.38;9.30;;;;;;;-145.63;47.21;39258.94;5071277;28;20143;-66
2024/04/02 03:34:48;;;;;;;21.65;9.45;;;;;;;-145.63;47.00;39204.16;5070836;28;20029;-66
2024/04/02 03:37:13;;;;;;;17.83;10.02;;;;;;;-145.63;47.25;39241.31;5058067;28;20029;-67
2024/04/02 03:39:39;;;;;;;24.02;10.40;;;;;;;-145.63;47.45;39233.50;5060805;28;20040;-67
2024/04/02 03:42:06;;;;;;;30.67;10.20;;;;;;;-145.63;46.96;39227.63;5071222;28;20044;-66
2024/04/02 03:44:33;;;;;;;26.35;10.07;;;;;;;-145.63;47.48;39247.19;5071250;28;20040;-65
2024/04/02 03:46:59;;;;;;;27.13;10.00;;;;;;;-145.63;47.03;39182.66;5070939;28;20038;-66
2024/04/02 03:49:25;;;;;;;21.15;10.05;;;;;;;-145.63;46.96;39206.13;5070814;28;20032;-68
2024/04/02 03:51:51;;;;;;;27.52;10.80;;;;;;;-145.63;46.90;39200.25;5077706;28;20166;-67
2024/04/02 03:54:17;;;;;;;34.22;10.48;;;;;;;-145.63;46.71;39204.16;5065842;28;20103;-67
2024/04/02 03:56:42;;;;;;;23.75;10.73;;;;;;;-145.63;46.70;39184.59;5051286;28;20422;-66
2024/04/02 03:59:08;;;;;;;30.45;10.18;;;;;;;-145.63;47.43;39153.31;5070751;28;20846;-66
2024/04/02 04:01:33;;;;;;;25.27;10.18;;;;;;;-145.63;47.07;39200.25;5055309;28;20032;-66
2024/04/02 04:03:59;;;;;;;28.38;11.10;;;;;;;-145.63;46.61;39176.78;5065392;28;20048;-66
2024/04/02 04:06:25;;;;;;;20.85;10.68;;;;;;;-145.63;45.94;39192.44;5064810;28;20504;-65
2024/04/02 04:08:50;;;;;;;26.98;12.15;;;;;;;-145.63;46.43;39141.59;5050092;28;20114;-66
2024/04/02 04:11:16;;;;;;;24.15;11.63;;;;;;;-145.63;46.77;39165.06;5049512;28;20040;-68
2024/04/02 04:13:41;;;;;;;29.73;10.50;;;;;;;-145.63;46.70;39157.22;5054923;28;20036;-66
2024/04/02 04:16:08;;;;;;;28.88;11.38;;;;;;;-145.63;46.52;39180.69;5054382;28;20033;-66
2024/04/02 04:18:33;;;;;;;27.77;10.13;;;;;;;-145.63;46.27;39122.03;5061387;28;20032;-66
2024/04/02 04:21:01;;;;;;;23.05;10.68;;;;;;;-145.63;46.09;39159.19;5072530;28;20028;-66
2024/04/02 04:23:28;;;;;;;29.30;10.52;;;;;;;-145.63;46.45;39137.69;5053995;28;20040;-67
2024/04/02 04:26:01;;;;;;;29.58;10.18;;;;;;;-145.63;45.96;39161.13;5070087;28;20035;-67
2024/04/02 04:28:28;;;;;;;25.75;10.88;;;;;;;-145.63;45.69;39155.28;5060568;28;20045;-66
2024/04/02 04:30:57;;;;;;;26.33;10.55;;;;;;;-145.63;46.00;39141.59;5060112;28;20056;-68
2024/04/02 04:33:24;;;;;;;27.92;9.80;;;;;;;-145.63;46.19;39116.16;5059790;28;20045;-66
2024/04/02 04:35:50;;;;;;;26.70;10.15;;;;;;;-145.63;45.59;39110.28;5073603;28;20449;-67
2024/04/02 04:38:16;;;;;;;29.70;10.45;;;;;;;-145.63;44.84;39120.06;5054287;28;20058;-66
2024/04/02 04:40:43;;;;;;;27.13;10.45;;;;;;;-145.63;45.35;39104.44;5068102;28;20039;-67
2024/04/02 04:43:09;;;;;;;27.23;11.23;;;;;;;-145.63;45.41;39077.06;5068328;28;20388;-67
2024/04/02 04:45:34;;;;;;;23.05;9.85;;;;;;;-145.63;45.82;39110.28;5071351;28;20044;-66
2024/04/02 04:48:04;;;;;;;27.85;10.98;;;;;;;-145.63;45.16;39133.75;5060289;28;20428;-66
2024/04/02 04:50:30;;;;;;;20.77;10.30;;;;;;;-145.63;45.04;39122.03;5074516;28;20418;-65
2024/04/02 04:52:55;;;;;;;26.88;11.00;;;;;;;-145.63;45.17;39082.91;5075325;28;20028;-65
2024/04/02 04:55:21;;;;;;;27.50;11.02;;;;;;;-145.63;44.88;39094.66;5060497;28;20035;-67
2024/04/02 04:57:46;;;;;;;27.52;10.60;;;;;;;-145.63;44.95;39071.19;5061772;28;20082;-67
2024/04/02 05:00:12;;;;;;;36.65;11.68;;;;;;;-145.63;45.09;39084.88;5072920;28;20036;-67
2024/04/02 05:02:38;;;;;;;22.25;9.35;;;;;;;-145.63;44.63;39063.34;5073478;28;20043;-67
2024/04/02 05:05:05;;;;;;;31.90;10.73;;;;;;;-145.63;44.16;39035.97;5074046;28;20056;-67
2024/04/02 05:07:31;;;;;;;30.67;11.50;;;;;;;-145.63;44.40;39084.88;5058627;28;20122;-68
2024/04/02 05:09:56;;;;;;;29.58;11.05;;;;;;;-145.63;43.75;39028.16;5053224;28;20150;-73
2024/04/02 05:12:22;;;;;;;27.65;10.48;;;;;;;-145.63;43.69;39051.63;5059203;28;20062;-67
2024/04/02 05:14:48;;;;;;;33.33;10.93;;;;;;;-145.63;43.72;39041.84;5072826;28;20043;-67
2024/04/02 05:17:13;;;;;;;22.65;10.10;;;;;;;-145.63;43.55;39035.97;5070319;28;20396;-66
2024/04/02 05:19:39;;;;;;;32.13;10.98;;;;;;;-145.63;43.68;39024.25;5073397;28;20082;-68
2024/04/02 05:22:06;;;;;;;35.83;11.52;;;;;;;-145.63;43.49;38996.88;5061890;28;20128;-67
2024/04/02 05:24:33;;;;;;;30.60;10.63;;;;;;;-145.63;43.62;39037.94;5059368;28;20038;-67
2024/04/02 05:26:59;;;;;;;28.17;12.35;;;;;;;-145.63;43.57;39008.59;5071689;28;20397;-67
2024/04/02 05:29:25;;;;;;;38.65;12.27;;;;;;;-145.63;43.13;38981.22;5052420;28;20101;-66
2024/04/02 05:31:50;;;;;;;27.17;11.40;;;;;;;-145.63;42.78;38991.00;5070118;28;20045;-66
2024/04/02 05:34:16;;;;;;;32.97;11.85;;;;;;;-145.63;42.81;38992.97;5073058;28;20046;-67
2024/04/02 05:36:42;;;;;;;35.03;13.05;;;;;;;-145.63;42.55;38971.44;5065062;28;20036;-67
2024/04/02 05:39:08;;;;;;;36.92;12.13;;;;;;;-145.63;42.88;38967.53;5059279;28;20028;-67
2024/04/02 05:41:33;;;;;;;36.38;12.15;;;;;;;-145.63;42.35;38953.84;5054690;28;20366;-67
2024/04/02 05:43:59;;;;;;;27.92;11.13;;;;;;;-145.63;42.26;38949.94;5072630;28;20048;-66
2024/04/02 05:46:24;;;;;;;34.10;11.95;;;;;;;-145.63;41.77;38938.19;5072806;28;20040;-66
2024/04/02 05:48:50;;;;;;;31.50;10.85;;;;;;;-145.63;41.52;38934.28;5069915;28;20030;-67
2024/04/02 05:51:15;;;;;;;29.08;10.98;;;;;;;-145.63;41.34;38932.34;5075834;28;20384;-66
2024/04/02 05:53:43;;;;;;;33.65;11.40;;;;;;;-145.63;40.83;38899.09;5072971;28;20460;-68
2024/04/02 05:56:08;;;;;;;33.20;11.73;;;;;;;-145.63;40.21;38891.28;5053610;28;20032;-67
2024/04/02 05:58:34;;;;;;;34.42;11.00;;;;;;;-145.63;40.34;38912.78;5066553;28;20032;-65
2024/04/02 06:01:06;;;;;;;89.97;14.80;;;;;;;-145.63;40.46;38893.22;5062903;28;20094;-64
2024/04/02 06:03:32;;;;;;;36.72;13.00;;;;;;;-145.63;39.55;38865.84;5044695;28;20381;-70
2024/04/02 06:05:58;;;;;;;85.22;16.52;;;;;;;-145.63;38.99;38820.88;5072333;28;20067;-67
2024/04/02 06:08:24;;;;;;;46.28;12.55;;;;;;;-145.63;39.35;38789.59;5072604;28;20028;-69
2024/04/02 06:10:50;;;;;;;28.55;11.48;;;;;;;-145.63;38.58;38787.63;5055557;28;20135;-69
2024/04/02 06:13:15;;;;;;;36.78;12.90;;;;;;;-145.63;38.04;38848.25;5064143;28;20032;-68
2024/04/02 06:15:42;;;;;;;37.78;12.75;;;;;;;-145.63;39.87;38895.19;5064951;28;20104;-67
2024/04/02 06:18:08;;;;;;;34.30;12.55;;;;;;;-145.63;39.79;38895.19;5054829;28;20029;-68
2024/04/02 06:20:34;;;;;;;38.03;13.82;;;;;;;-145.63;39.67;38840.44;5072269;28;20045;-68
2024/04/02 06:22:59;;;;;;;28.83;11.65;;;;;;;-145.63;38.90;38809.13;5054575;28;20044;-68
2024/04/02 06:25:25;;;;;;;44.72;12.50;;;;;;;-145.63;38.69;38791.53;5053533;28;20041;-68
2024/04/02 06:27:51;;;;;;;36.90;12.68;;;;;;;-145.63;37.78;38750.47;5072478;28;20115;-69
2024/04/02 06:30:16;;;;;;;30.45;11.82;;;;;;;-145.63;37.88;38742.66;5067781;28;20049;-68
2024/04/02 06:32:42;;;;;;;31.55;12.07;;;;;;;-145.63;37.76;38727.00;5051870;28;20052;-67
2024/04/02 06:35:07;;;;;;;37.65;13.38;;;;;;;-145.63;37.25;38676.16;5069459;28;20041;-69
2024/04/02 06:37:33;;;;;;;41.28;12.30;;;;;;;-145.63;36.40;38676.16;5057244;28;20039;-69
2024/04/02 06:39:59;;;;;;;35.50;12.10;;;;;;;-145.63;36.24;38664.44;5060914;28;20039;-69
2024/04/02 06:42:25;;;;;;;33.42;12.23;;;;;;;-145.63;36.16;38574.47;5071577;28;20037;-69
2024/04/02 06:44:50;;;;;;;42.90;12.38;;;;;;;-145.63;35.77;38605.78;5071376;28;20086;-68
2024/04/02 06:47:16;;;;;;;37.33;12.68;;;;;;;-145.63;35.59;38660.53;5071634;28;20029;-67
2024/04/02 06:49:41;;;;;;;36.03;13.30;;;;;;;-145.63;35.72;38615.53;5056248;28;20037;-69
2024/04/02 06:52:07;;;;;;;37.42;13.40;;;;;;;-145.63;35.96;38699.63;5078684;28;20583;-68
2024/04/02 06:54:33;;;;;;;47.60;13.77;;;;;;;-145.63;36.26;38664.44;5065871;28;20034;-68
2024/04/02 06:56:58;;;;;;;38.45;13.20;;;;;;;-145.63;36.16;38695.72;5071421;28;20032;-69
2024/04/02 06:59:24;;;;;;;30.85;12.38;;;;;;;-145.63;36.60;38707.44;5071522;28;20158;-69
2024/04/02 07:01:49;;;;;;;32.10;15.02;;;;;;;-145.63;36.95;38760.25;5071576;28;20040;-68
2024/04/02 07:04:15;;;;;;;35.55;12.82;;;;;;;-145.63;37.50;38773.94;5065836;28;20051;-69
2024/04/02 07:06:42;;;;;;;46.13;13.65;;;;;;;-145.63;37.06;38707.44;5064105;28;20429;-68
2024/04/02 07:09:08;;;;;;;39.47;13.57;;;;;;;-145.63;36.44;38664.44;5068197;28;20045;-67
2024/04/02 07:11:34;;;;;;;34.03;13.10;;;;;;;-145.63;35.38;38504.09;5065220;28;20032;-68
2024/04/02 07:14:01;;;;;;;36.00;12.57;;;;;;;-145.63;34.49;38539.28;5054106;28;20386;-70
2024/04/02 07:16:27;;;;;;;34.75;12.88;;;;;;;-145.63;33.74;38484.53;5063780;28;20024;-68
2024/04/02 07:18:52;;;;;;;42.03;12.73;;;;;;;-145.63;32.39;38380.91;5062556;28;20041;-68
2024/04/02 07:21:18;;;;;;;38.65;12.93;;;;;;;-145.63;31.87;38304.66;5054099;28;20028;-69
2024/04/02 07:23:44;;;;;;;35.53;12.57;;;;;;;-145.63;31.95;38347.66;5071342;28;20450;-69
2024/04/02 07:26:09;;;;;;;35.70;12.27;;;;;;;-145.63;31.96;38257.72;5053475;28;20402;-69
2024/04/02 07:28:35;;;;;;;39.63;13.65;;;;;;;-145.63;30.93;38232.31;5064456;28;20032;-68
2024/04/02 07:31:00;;;;;;;41.53;12.43;;;;;;;-145.63;30.30;38171.69;5067981;28;20533;-70
2024/04/02 07:33:26;;;;;;;36.63;12.13;;;;;;;-145.63;31.08;38202.97;5071139;28;20076;-68
2024/04/02 07:35:58;;;;;;;34.33;11.57;;;;;;;-145.63;30.48;38255.78;5070617;28;20048;-68
2024/04/02 07:38:24;;;;;;;38.15;12.63;;;;;;;-145.63;31.25;38259.69;5050987;28;20037;-68
2024/04/02 07:40:49;;;;;;;42.08;12.93;;;;;;;-145.63;30.61;38197.13;5066194;28;20036;-68
2024/04/02 07:43:15;;;;;;;47.55;13.68;;;;;;;-145.63;30.25;38281.19;5070643;28;20071;-68
2024/04/02 07:45:41;;;;;;;40.40;13.40;;;;;;;-145.63;31.29;38289.00;5052324;28;20042;-68
2024/04/02 07:48:07;;;;;;;40.08;13.43;;;;;;;-145.63;30.78;38238.16;5075437;28;20104;-68
2024/04/02 07:50:37;;;;;;;35.38;12.48;;;;;;;-145.63;31.12;38388.72;5080663;28;20077;-67
2024/04/02 07:53:03;;;;;;;32.05;13.70;;;;;;;-145.63;31.04;38251.84;5077913;28;20150;-68
2024/04/02 07:55:28;;;;;;;43.53;13.38;;;;;;;-145.63;30.54;38289.00;5072936;28;20381;-69
2024/04/02 07:57:54;;;;;;;35.55;14.02;;;;;;;-145.63;30.61;38183.44;5075163;28;20105;-69
2024/04/02 08:00:19;;;;;;;51.78;14.30;;;;;;;-145.63;30.14;38115.00;5070269;28;20527;-70
2024/04/02 08:02:48;;;;;;;34.50;13.18;;;;;;;-145.63;29.73;38118.91;5058419;28;20064;-68
2024/04/02 08:05:14;;;;;;;33.72;13.35;;;;;;;-145.63;30.24;38152.16;5062419;28;20033;-69
2024/04/02 08:07:46;;;;;;;45.03;13.20;;;;;;;-145.63;30.55;38171.69;5055170;28;20029;-68
2024/04/02 08:10:12;;;;;;;43.00;13.32;;;;;;;-145.63;30.54;38156.06;5055015;28;20327;-69
2024/04/02 08:12:38;;;;;;;44.88;12.48;;;;;;;-145.63;30.78;38289.00;5060096;28;20072;-68
2024/04/02 08:15:04;;;;;;;48.47;13.25;;;;;;;-145.63;30.81;38269.47;5072989;28;20085;-69
2024/04/02 08:17:30;;;;;;;41.38;12.57;;;;;;;-145.63;30.92;38249.91;5075123;28;20029;-69
2024/04/02 08:19:56;;;;;;;45.42;13.13;;;;;;;-145.63;31.29;38345.72;5073361;28;20032;-69
2024/04/02 08:22:22;;;;;;;46.22;13.98;;;;;;;-145.63;31.16;38285.09;5074942;28;20048;-68
2024/04/02 08:24:49;;;;;;;47.05;14.25;;;;;;;-145.63;31.51;38343.75;5025426;28;20531;-68
2024/04/02 08:27:14;;;;;;;48.58;14.13;;;;;;;-145.63;31.40;38359.41;5073053;28;20041;-68
2024/04/02 08:29:40;;;;;;;42.08;14.15;;;;;;;-145.63;31.64;38359.41;5074222;28;20154;-69
2024/04/02 08:32:06;;;;;;;43.35;13.23;;;;;;;-145.63;31.97;38384.81;5056480;28;20124;-68
2024/04/02 08:34:31;;;;;;;44.25;12.77;;;;;;;-145.63;32.51;38455.22;5067084;28;20040;-68
2024/04/02 08:36:59;;;;;;;51.70;14.15;;;;;;;-145.63;32.31;38416.09;5070127;28;20518;-67
2024/04/02 08:39:24;;;;;;;51.85;12.43;;;;;;;-145.63;32.48;38386.78;5056321;28;20098;-67
2024/04/02 08:41:57;;;;;;;44.38;13.82;;;;;;;-145.63;32.33;38343.75;5069094;28;20052;-69
2024/04/02 08:44:23;;;;;;;38.78;12.23;;;;;;;-145.63;31.04;38285.09;5082098;28;20040;-70
2024/04/02 08:46:48;;;;;;;45.92;13.25;;;;;;;-145.63;31.29;38294.88;5079266;28;20025;-68
2024/04/02 08:49:15;;;;;;;40.45;12.65;;;;;;;-145.63;31.17;38261.63;5068223;28;20041;-68
2024/04/02 08:51:41;;;;;;;47.08;14.50;;;;;;;-145.63;30.53;38246.00;5083628;28;20457;-70
2024/04/02 08:54:06;;;;;;;46.42;13.63;;;;;;;-145.63;30.64;38210.81;5073464;28;20162;-70
2024/04/02 08:56:32;;;;;;;49.10;13.02;;;;;;;-145.63;29.71;38175.59;5064375;28;20086;-68
2024/04/02 08:58:59;;;;;;;44.85;12.63;;;;;;;-145.63;29.56;38136.50;5056730;28;20374;-69
2024/04/02 09:01:25;;;;;;;47.60;14.10;;;;;;;-145.63;29.61;38144.31;5067874;28;20036;-69
2024/04/02 09:03:53;;;;;;;45.03;14.00;;;;;;;-145.63;29.46;38148.22;5073521;28;20032;-69
2024/04/02 09:06:18;;;;;;;49.78;14.43;;;;;;;-145.63;29.74;38202.97;5071148;28;20044;-68
2024/04/02 09:08:48;;;;;;;45.25;14.43;;;;;;;-145.63;30.38;38132.59;5053532;28;20121;-68
2024/04/02 09:11:14;;;;;;;42.92;13.52;;;;;;;-145.63;29.78;38105.22;5071196;28;20113;-68
2024/04/02 09:13:41;;;;;;;44.92;13.32;;;;;;;-145.63;29.22;38034.84;5055278;28;20382;-68
2024/04/02 09:16:07;;;;;;;43.15;12.65;;;;;;;-145.63;28.92;37974.22;5073826;28;20035;-69
2024/04/02 09:18:37;;;;;;;44.42;13.50;;;;;;;-145.63;28.41;37962.50;5068879;28;20068;-68
2024/04/02 09:21:03;;;;;;;44.67;12.45;;;;;;;-145.63;28.73;38068.06;5053868;28;20031;-68
2024/04/02 09:23:29;;;;;;;69.28;14.75;;;;;;;-145.63;28.95;37970.31;5053571;28;20063;-68
2024/04/02 09:25:56;;;;;;;44.92;12.80;;;;;;;-145.63;28.57;38058.28;5068201;28;20064;-69
2024/04/02 09:28:22;;;;;;;42.15;12.73;;;;;;;-145.63;29.75;38197.13;5073849;28;20025;-70
2024/04/02 09:30:48;;;;;;;42.58;11.95;;;;;;;-145.63;30.06;38220.56;5051305;28;20123;-71
2024/04/02 09:33:16;;;;;;;43.40;13.15;;;;;;;-145.63;30.17;38267.50;5060670;28;20048;-70
2024/04/02 09:36:09;;;;;;;43.38;12.90;;;;;;;-145.63;30.15;38193.19;5035219;28;20041;-69
2024/04/02 09:38:36;;;;;;;43.40;12.27;;;;;;;-145.63;29.94;38132.59;5053084;28;20347;-69
2024/04/02 09:41:02;;;;;;;36.50;11.50;;;;;;;-145.63;29.73;38193.19;5064985;28;20032;-69
2024/04/02 09:43:30;;;;;;;42.47;12.85;;;;;;;-145.63;30.15;38187.34;5063030;28;20047;-69
2024/04/02 09:45:59;;;;;;;37.95;12.48;;;;;;;-145.63;30.50;38167.78;5059964;28;20052;-69
2024/04/02 09:48:26;;;;;;;51.25;12.25;;;;;;;-145.63;30.48;38187.34;5069204;28;20044;-69
2024/04/02 09:50:52;;;;;;;41.83;11.35;;;;;;;-145.63;30.35;38148.22;5067733;28;20028;-68
2024/04/02 09:53:20;;;;;;;42.53;12.20;;;;;;;-145.63;30.21;38191.25;5072536;28;20028;-69
2024/04/02 09:55:48;;;;;;;44.05;11.27;;;;;;;-145.63;29.98;38140.41;5058642;28;20067;-68
2024/04/02 09:58:16;;;;;;;39.97;11.18;;;;;;;-145.63;30.37;38101.31;5062691;28;20040;-69
2024/04/02 10:00:46;;;;;;;41.85;10.73;;;;;;;-145.63;29.74;38077.84;5071747;28;20082;-67
2024/04/02 10:03:13;;;;;;;36.22;10.80;;;;;;;-145.63;30.19;38185.38;5062373;28;20071;-71
2024/04/02 10:05:39;;;;;;;43.88;11.20;;;;;;;-145.63;29.44;38148.22;5062949;28;20036;-67
2024/04/02 10:08:07;;;;;;;39.08;11.13;;;;;;;-145.63;30.57;38253.81;5060952;28;20051;-69
2024/04/02 10:10:40;;;;;;;48.45;11.23;;;;;;;-145.63;30.56;38247.94;5058001;28;20041;-69
2024/04/02 10:13:06;;;;;;;41.42;11.00;;;;;;;-145.63;29.92;38175.59;5059731;28;20131;-70
2024/04/02 10:15:33;;;;;;;40.30;11.57;;;;;;;-145.63;29.68;38111.09;5055974;28;20462;-69
2024/04/02 10:18:00;;;;;;;39.65;10.38;;;;;;;-145.63;29.26;38103.25;5072403;28;20029;-68
2024/04/02 10:20:33;;;;;;;45.08;11.23;;;;;;;-145.63;29.60;38136.50;5062474;28;20036;-72
2024/04/02 10:23:01;;;;;;;37.15;10.88;;;;;;;-145.63;29.11;38097.41;5057082;28;20424;-69
2024/04/02 10:25:31;;;;;;;50.53;11.95;;;;;;;-145.63;29.80;38150.19;5071258;28;20033;-68
2024/04/02 10:28:01;;;;;;;43.20;11.15;;;;;;;-145.63;30.29;38263.59;5077192;28;20028;-69
2024/04/02 10:30:27;;;;;;;38.97;10.75;;;;;;;-145.63;30.26;38197.13;5074972;28;20059;-69
2024/04/02 10:32:54;;;;;;;46.72;11.05;;;;;;;-145.63;30.67;38367.22;5066915;28;20032;-70
2024/04/02 10:35:25;;;;;;;39.95;11.10;;;;;;;-145.63;29.99;38159.97;5054277;28;20076;-69
2024/04/02 10:37:55;;;;;;;47.22;11.10;;;;;;;-145.63;29.88;38210.81;5072081;28;20108;-69
2024/04/02 10:40:21;;;;;;;39.65;10.85;;;;;;;-145.63;29.88;38197.13;5061903;28;20029;-68
2024/04/02 10:42:48;;;;;;;40.45;11.15;;;;;;;-145.63;29.54;38163.88;5056873;28;20465;-71
2024/04/02 10:45:14;;;;;;;35.67;10.43;;;;;;;-145.63;29.88;38206.88;5072254;28;20116;-70
2024/04/02 10:47:47;;;;;;;40.10;10.95;;;;;;;-145.63;29.82;38122.81;5071335;28;20107;-69
2024/04/02 10:50:16;;;;;;;42.78;10.38;;;;;;;-145.63;29.88;38144.31;5061170;28;20419;-70
2024/04/02 10:52:43;;;;;;;45.88;12.02;;;;;;;-145.63;29.63;38150.19;5064344;28;20044;-68
2024/04/02 10:55:09;;;;;;;39.70;11.02;;;;;;;-145.63;29.56;38081.75;5071323;28;20086;-68
2024/04/02 10:57:36;;;;;;;38.85;11.00;;;;;;;-145.63;29.96;38156.06;5068062;28;20055;-68
2024/04/02 11:00:05;;;;;;;41.28;10.68;;;;;;;-145.63;29.46;38159.97;5052146;28;20025;-68